Aérodrome :
LOGIN :

S'inscrire | Disclaimer

   EN    FR    IT 

 










Légende :    VFR   VFR Marginal   IFR   IFR Intensif   IFR Très Intensif
Visi : 
Plafond : 
>= 8 km
>= 3000ft
5 à 8 km
1000 à 3000 ft
1500m à 5 km
500 à 1000 ft
800 à 1500m
200 à 500 ft
< 800m
< 200 ft
Symboles :   Orages  Brouillard  Fortes neiges  Fortes précipitations  Vent > 20 kt
SIGMETs :   Divers  Orages  Givrage  Turbulence  Onde Orograph.  Cendres Volcan.






- Altitude de l'aérodrome : 49 ft
- Code IATA : SEN


EGMC - Southend

DERNIER METAR :
  • 211420Z 23019KT 9999 BKN032 10/04 Q1021

METARs EXPIRÉS :
  • 211350Z 23018KT 9999 BKN033 10/05 Q1022
  • 211320Z 23015KT 9999 BKN036 10/04 Q1022
  • 211250Z 23019KT 9999 FEW035 BKN041 10/04 Q1022
  • 211220Z 24017KT 9999 FEW035 BKN037 10/04 Q1022
  • 211150Z 24017KT 9999 FEW035 SCT041 09/03 Q1023

TAF TAF EGMC
Valide du 21 à 15h jusqu'au 22 à 00h UTC


211407Z 2115/2124 23020G30KT 9999 BKN025
PROB30
TEMPO 2120/2124 8000 -RA BKN012



MET'MAP, la Météo Aéronautique d'un coup d'oeil ! - Copyright ORBIFLY Décembre 2007 - Disclaimer

ORBIFLY MET'MAP TEAM :

Programmation & Développement : Alexandra Zaïnal
Sur une idée originale de : Baudouin d'Aumeries
Assistance à la programmation : Marc-Olivier Méhu
Soutien technique & logistique : Manuel Goepfert

Contact : metmap@orbifly.com




SOURCES & CREDITS :

   NOAA